sensor_id;sensor_type;location;lat;lon;timestamp;pressure;altitude;pressure_sealevel;temperature;humidity
58690;BME280;44470;53.206;-6.106;2023-08-08T00:01:28;101586.53;;;20.73;59.15
58690;BME280;44470;53.206;-6.106;2023-08-08T00:03:53;101578.53;;;20.71;59.36
58690;BME280;44470;53.206;-6.106;2023-08-08T00:06:18;101567.81;;;20.71;59.15
58690;BME280;44470;53.206;-6.106;2023-08-08T00:08:44;101567.81;;;20.71;59.27
58690;BME280;44470;53.206;-6.106;2023-08-08T00:11:09;101574.06;;;20.72;59.25
58690;BME280;44470;53.206;-6.106;2023-08-08T00:13:34;101567.78;;;20.73;59.33
58690;BME280;44470;53.206;-6.106;2023-08-08T00:16:00;101544.75;;;20.59;59.38
58690;BME280;44470;53.206;-6.106;2023-08-08T00:18:28;101559.78;;;20.73;59.47
58690;BME280;44470;53.206;-6.106;2023-08-08T00:20:53;101563.34;;;20.73;59.03
58690;BME280;44470;53.206;-6.106;2023-08-08T00:23:19;101558.00;;;20.72;59.07
58690;BME280;44470;53.206;-6.106;2023-08-08T00:25:44;101555.31;;;20.73;59.24
58690;BME280;44470;53.206;-6.106;2023-08-08T00:28:15;101547.31;;;20.73;59.48
58690;BME280;44470;53.206;-6.106;2023-08-08T00:30:41;101547.31;;;20.73;59.20
58690;BME280;44470;53.206;-6.106;2023-08-08T00:33:06;101538.38;;;20.74;59.39
58690;BME280;44470;53.206;-6.106;2023-08-08T00:35:31;101533.03;;;20.73;59.30
58690;BME280;44470;53.206;-6.106;2023-08-08T00:37:57;101549.06;;;20.74;59.42
58690;BME280;44470;53.206;-6.106;2023-08-08T00:40:22;101547.31;;;20.72;59.62
58690;BME280;44470;53.206;-6.106;2023-08-08T00:42:47;101550.84;;;20.74;59.42
58690;BME280;44470;53.206;-6.106;2023-08-08T00:45:13;101549.06;;;20.74;59.45
58690;BME280;44470;53.206;-6.106;2023-08-08T00:47:38;101533.97;;;20.70;59.53
58690;BME280;44470;53.206;-6.106;2023-08-08T00:50:04;101533.91;;;20.73;59.53
58690;BME280;44470;53.206;-6.106;2023-08-08T00:52:29;101533.03;;;20.74;59.20
58690;BME280;44470;53.206;-6.106;2023-08-08T00:54:55;101536.59;;;20.73;59.51
58690;BME280;44470;53.206;-6.106;2023-08-08T00:57:21;101541.03;;;20.74;59.36
58690;BME280;44470;53.206;-6.106;2023-08-08T00:59:46;101536.56;;;20.75;59.50
58690;BME280;44470;53.206;-6.106;2023-08-08T01:02:14;101538.38;;;20.74;59.63
58690;BME280;44470;53.206;-6.106;2023-08-08T01:04:39;101533.03;;;20.74;59.67
58690;BME280;44470;53.206;-6.106;2023-08-08T01:12:10;101530.34;;;20.74;59.63
58690;BME280;44470;53.206;-6.106;2023-08-08T01:14:36;101533.88;;;20.75;59.55
58690;BME280;44470;53.206;-6.106;2023-08-08T01:17:02;101526.78;;;20.75;59.50
58690;BME280;44470;53.206;-6.106;2023-08-08T01:19:29;101530.31;;;20.76;59.57
58690;BME280;44470;53.206;-6.106;2023-08-08T01:21:57;101530.34;;;20.74;59.49
58690;BME280;44470;53.206;-6.106;2023-08-08T01:24:24;101519.66;;;20.74;59.83
58690;BME280;44470;53.206;-6.106;2023-08-08T01:26:54;101517.88;;;20.73;59.83
58690;BME280;44470;53.206;-6.106;2023-08-08T01:29:20;101522.31;;;20.73;59.47
58690;BME280;44470;53.206;-6.106;2023-08-08T01:31:45;101529.44;;;20.74;59.86
58690;BME280;44470;53.206;-6.106;2023-08-08T01:34:11;101527.66;;;20.74;59.58
58690;BME280;44470;53.206;-6.106;2023-08-08T01:36:42;101527.66;;;20.74;59.70
58690;BME280;44470;53.206;-6.106;2023-08-08T01:39:10;101519.66;;;20.74;59.51
58690;BME280;44470;53.206;-6.106;2023-08-08T01:41:38;101521.41;;;20.75;59.67
58690;BME280;44470;53.206;-6.106;2023-08-08T01:44:04;101516.06;;;20.75;59.84
58690;BME280;44470;53.206;-6.106;2023-08-08T01:46:31;101515.16;;;20.75;59.60
58690;BME280;44470;53.206;-6.106;2023-08-08T01:48:57;101524.09;;;20.75;59.88
58690;BME280;44470;53.206;-6.106;2023-08-08T01:51:23;101519.66;;;20.74;59.91
58690;BME280;44470;53.206;-6.106;2023-08-08T01:53:50;101520.50;;;20.75;59.79
58690;BME280;44470;53.206;-6.106;2023-08-08T01:56:16;101514.28;;;20.74;59.60
58690;BME280;44470;53.206;-6.106;2023-08-08T01:58:41;101513.38;;;20.75;59.88
58690;BME280;44470;53.206;-6.106;2023-08-08T02:01:06;101512.50;;;20.75;59.72
58690;BME280;44470;53.206;-6.106;2023-08-08T02:03:32;101503.59;;;20.74;59.68
58690;BME280;44470;53.206;-6.106;2023-08-08T02:05:57;101508.94;;;20.74;59.94
58690;BME280;44470;53.206;-6.106;2023-08-08T02:08:24;101508.94;;;20.74;59.90
58690;BME280;44470;53.206;-6.106;2023-08-08T02:10:49;101510.72;;;20.75;59.91
58690;BME280;44470;53.206;-6.106;2023-08-08T02:13:15;101509.81;;;20.76;59.76
58690;BME280;44470;53.206;-6.106;2023-08-08T02:15:40;101505.38;;;20.75;59.99
58690;BME280;44470;53.206;-6.106;2023-08-08T02:18:05;101504.47;;;20.75;59.79
58690;BME280;44470;53.206;-6.106;2023-08-08T02:20:32;101493.75;;;20.75;59.77
58690;BME280;44470;53.206;-6.106;2023-08-08T02:22:58;101495.53;;;20.76;60.12
58690;BME280;44470;53.206;-6.106;2023-08-08T02:25:23;101499.13;;;20.76;59.97
58690;BME280;44470;53.206;-6.106;2023-08-08T02:27:48;101498.25;;;20.74;60.06
58690;BME280;44470;53.206;-6.106;2023-08-08T02:30:14;101497.34;;;20.75;59.99
58690;BME280;44470;53.206;-6.106;2023-08-08T02:32:39;101486.63;;;20.75;59.81
58690;BME280;44470;53.206;-6.106;2023-08-08T02:35:05;101480.38;;;20.76;60.00
58690;BME280;44470;53.206;-6.106;2023-08-08T02:37:30;101485.72;;;20.76;59.76
58690;BME280;44470;53.206;-6.106;2023-08-08T02:39:56;101483.06;;;20.76;60.12
58690;BME280;44470;53.206;-6.106;2023-08-08T02:42:21;101475.03;;;20.75;60.24
58690;BME280;44470;53.206;-6.106;2023-08-08T02:44:47;101483.06;;;20.75;59.80
58690;BME280;44470;53.206;-6.106;2023-08-08T02:47:12;101483.06;;;20.76;60.11
58690;BME280;44470;53.206;-6.106;2023-08-08T02:49:38;101479.47;;;20.76;60.11
58690;BME280;44470;53.206;-6.106;2023-08-08T02:52:03;101473.25;;;20.75;60.17
58690;BME280;44470;53.206;-6.106;2023-08-08T02:54:32;101478.63;;;20.75;59.82
58690;BME280;44470;53.206;-6.106;2023-08-08T02:56:57;101478.63;;;20.75;60.09
58690;BME280;44470;53.206;-6.106;2023-08-08T02:59:23;101482.16;;;20.76;59.85
58690;BME280;44470;53.206;-6.106;2023-08-08T03:01:50;101481.28;;;20.75;60.21
58690;BME280;44470;53.206;-6.106;2023-08-08T03:04:17;101479.47;;;20.76;60.06
58690;BME280;44470;53.206;-6.106;2023-08-08T03:06:43;101479.47;;;20.76;59.89
58690;BME280;44470;53.206;-6.106;2023-08-08T03:09:09;101486.59;;;20.77;60.28
58690;BME280;44470;53.206;-6.106;2023-08-08T03:11:36;101480.38;;;20.76;59.84
58690;BME280;44470;53.206;-6.106;2023-08-08T03:14:04;101483.06;;;20.76;59.91
58690;BME280;44470;53.206;-6.106;2023-08-08T03:16:31;101474.13;;;20.77;60.18
58690;BME280;44470;53.206;-6.106;2023-08-08T03:18:56;101457.22;;;20.74;59.95
58690;BME280;44470;53.206;-6.106;2023-08-08T03:21:22;101467.00;;;20.76;60.00
58690;BME280;44470;53.206;-6.106;2023-08-08T03:23:47;101462.53;;;20.77;60.17
58690;BME280;44470;53.206;-6.106;2023-08-08T03:26:13;101471.47;;;20.77;60.00
58690;BME280;44470;53.206;-6.106;2023-08-08T03:28:38;101459.88;;;20.75;60.14
58690;BME280;44470;53.206;-6.106;2023-08-08T03:31:04;101455.41;;;20.77;60.38
58690;BME280;44470;53.206;-6.106;2023-08-08T03:33:30;101459.84;;;20.77;60.10
58690;BME280;44470;53.206;-6.106;2023-08-08T03:36:00;101464.34;;;20.76;59.85
58690;BME280;44470;53.206;-6.106;2023-08-08T03:38:25;101467.00;;;20.76;60.13
58690;BME280;44470;53.206;-6.106;2023-08-08T03:40:50;101462.53;;;20.77;60.22
58690;BME280;44470;53.206;-6.106;2023-08-08T03:43:16;101481.28;;;20.79;60.13
58690;BME280;44470;53.206;-6.106;2023-08-08T03:45:41;101471.47;;;20.77;59.79
58690;BME280;44470;53.206;-6.106;2023-08-08T03:48:07;101475.94;;;20.79;59.84
58690;BME280;44470;53.206;-6.106;2023-08-08T03:50:32;101469.66;;;20.78;59.84
58690;BME280;44470;53.206;-6.106;2023-08-08T03:52:57;101478.59;;;20.79;59.87
58690;BME280;44470;53.206;-6.106;2023-08-08T03:55:23;101475.00;;;20.78;60.19
58690;BME280;44470;53.206;-6.106;2023-08-08T03:57:48;101473.25;;;20.79;59.88
58690;BME280;44470;53.206;-6.106;2023-08-08T04:00:14;101468.78;;;20.79;60.30
58690;BME280;44470;53.206;-6.106;2023-08-08T04:02:39;101467.91;;;20.79;59.91
58690;BME280;44470;53.206;-6.106;2023-08-08T04:05:05;101469.69;;;20.80;60.07
58690;BME280;44470;53.206;-6.106;2023-08-08T04:07:30;101464.34;;;20.80;60.39
58690;BME280;44470;53.206;-6.106;2023-08-08T04:09:56;101467.91;;;20.79;59.88
58690;BME280;44470;53.206;-6.106;2023-08-08T04:12:21;101451.84;;;20.79;60.09
58690;BME280;44470;53.206;-6.106;2023-08-08T04:14:47;101453.63;;;20.80;60.24
58690;BME280;44470;53.206;-6.106;2023-08-08T04:17:12;101450.06;;;20.79;60.15
58690;BME280;44470;53.206;-6.106;2023-08-08T04:19:38;101447.38;;;20.79;60.10
58690;BME280;44470;53.206;-6.106;2023-08-08T04:22:03;101450.91;;;20.81;60.04
58690;BME280;44470;53.206;-6.106;2023-08-08T04:24:28;101446.50;;;20.79;60.35
58690;BME280;44470;53.206;-6.106;2023-08-08T04:26:54;101443.78;;;20.80;59.97
58690;BME280;44470;53.206;-6.106;2023-08-08T04:29:19;101440.25;;;20.80;59.97
58690;BME280;44470;53.206;-6.106;2023-08-08T04:31:45;101439.34;;;20.81;60.16
58690;BME280;44470;53.206;-6.106;2023-08-08T04:34:10;101434.00;;;20.81;59.81
58690;BME280;44470;53.206;-6.106;2023-08-08T04:36:35;101429.50;;;20.81;60.07
58690;BME280;44470;53.206;-6.106;2023-08-08T04:39:01;101425.97;;;20.81;60.24
58690;BME280;44470;53.206;-6.106;2023-08-08T04:41:26;101422.41;;;20.80;59.82
58690;BME280;44470;53.206;-6.106;2023-08-08T04:43:52;101423.28;;;20.81;59.63
58690;BME280;44470;53.206;-6.106;2023-08-08T04:46:17;101420.63;;;20.81;60.15
58690;BME280;44470;53.206;-6.106;2023-08-08T04:48:42;101417.03;;;20.80;60.36
58690;BME280;44470;53.206;-6.106;2023-08-08T04:51:08;101419.72;;;20.82;60.33
58690;BME280;44470;53.206;-6.106;2023-08-08T04:53:33;101425.06;;;20.82;60.17
58690;BME280;44470;53.206;-6.106;2023-08-08T04:55:59;101419.72;;;20.82;60.43
58690;BME280;44470;53.206;-6.106;2023-08-08T04:58:24;101419.72;;;20.82;60.29
58690;BME280;44470;53.206;-6.106;2023-08-08T05:00:49;101430.41;;;20.82;60.24
58690;BME280;44470;53.206;-6.106;2023-08-08T05:03:18;101424.16;;;20.83;60.38
58690;BME280;44470;53.206;-6.106;2023-08-08T05:05:43;101419.72;;;20.82;60.12
58690;BME280;44470;53.206;-6.106;2023-08-08T05:08:15;101416.13;;;20.83;60.41
58690;BME280;44470;53.206;-6.106;2023-08-08T05:10:40;101410.78;;;20.81;59.92
58690;BME280;44470;53.206;-6.106;2023-08-08T05:13:05;101411.69;;;20.82;60.20
58690;BME280;44470;53.206;-6.106;2023-08-08T05:15:31;101421.47;;;20.83;60.15
58690;BME280;44470;53.206;-6.106;2023-08-08T05:17:56;101419.72;;;20.82;60.23
58690;BME280;44470;53.206;-6.106;2023-08-08T05:20:22;101402.75;;;20.83;60.35
58690;BME280;44470;53.206;-6.106;2023-08-08T05:22:48;101405.44;;;20.83;60.28
58690;BME280;44470;53.206;-6.106;2023-08-08T05:25:13;101403.66;;;20.82;60.21
58690;BME280;44470;53.206;-6.106;2023-08-08T05:27:39;101404.53;;;20.82;60.19
58690;BME280;44470;53.206;-6.106;2023-08-08T05:30:04;101411.66;;;20.83;60.06
58690;BME280;44470;53.206;-6.106;2023-08-08T05:32:30;101413.47;;;20.83;60.22
58690;BME280;44470;53.206;-6.106;2023-08-08T05:34:56;101410.78;;;20.83;59.99
58690;BME280;44470;53.206;-6.106;2023-08-08T05:37:23;101401.84;;;20.84;60.06
58690;BME280;44470;53.206;-6.106;2023-08-08T05:39:48;101402.75;;;20.83;60.23
58690;BME280;44470;53.206;-6.106;2023-08-08T05:42:13;101406.31;;;20.83;60.02
58690;BME280;44470;53.206;-6.106;2023-08-08T05:44:39;101401.84;;;20.84;60.37
58690;BME280;44470;53.206;-6.106;2023-08-08T05:47:06;101408.06;;;20.84;60.21
58690;BME280;44470;53.206;-6.106;2023-08-08T05:49:32;101404.53;;;20.84;60.11
58690;BME280;44470;53.206;-6.106;2023-08-08T05:51:57;101416.09;;;20.84;60.17
58690;BME280;44470;53.206;-6.106;2023-08-08T05:54:23;101418.78;;;20.84;60.21
58690;BME280;44470;53.206;-6.106;2023-08-08T05:56:48;101419.69;;;20.83;60.22
58690;BME280;44470;53.206;-6.106;2023-08-08T05:59:13;101411.66;;;20.83;60.12
58690;BME280;44470;53.206;-6.106;2023-08-08T06:01:39;101419.69;;;20.83;60.36
58690;BME280;44470;53.206;-6.106;2023-08-08T06:04:04;101417.91;;;20.84;60.12
58690;BME280;44470;53.206;-6.106;2023-08-08T06:06:29;101423.25;;;20.84;60.45
58690;BME280;44470;53.206;-6.106;2023-08-08T06:08:55;101424.13;;;20.84;60.49
58690;BME280;44470;53.206;-6.106;2023-08-08T06:11:20;101411.66;;;20.85;60.43
58690;BME280;44470;53.206;-6.106;2023-08-08T06:13:46;101403.63;;;20.85;60.24
58690;BME280;44470;53.206;-6.106;2023-08-08T06:16:12;101400.94;;;20.85;60.27
58690;BME280;44470;53.206;-6.106;2023-08-08T06:18:38;101406.28;;;20.85;60.26
58690;BME280;44470;53.206;-6.106;2023-08-08T06:21:03;101410.75;;;20.86;60.29
58690;BME280;44470;53.206;-6.106;2023-08-08T06:23:29;101400.94;;;20.85;60.20
58690;BME280;44470;53.206;-6.106;2023-08-08T06:25:54;101390.25;;;20.85;60.69
58690;BME280;44470;53.206;-6.106;2023-08-08T06:28:20;101391.13;;;20.85;60.48
58690;BME280;44470;53.206;-6.106;2023-08-08T06:30:45;101392.03;;;20.84;60.23
58690;BME280;44470;53.206;-6.106;2023-08-08T06:33:11;101394.69;;;20.86;60.48
58690;BME280;44470;53.206;-6.106;2023-08-08T06:35:36;101407.16;;;20.85;60.43
58690;BME280;44470;53.206;-6.106;2023-08-08T06:38:02;101408.06;;;20.86;60.31
58690;BME280;44470;53.206;-6.106;2023-08-08T06:40:28;101415.22;;;20.82;60.25
58690;BME280;44470;53.206;-6.106;2023-08-08T06:42:53;101418.78;;;20.86;60.58
58690;BME280;44470;53.206;-6.106;2023-08-08T06:45:18;101410.75;;;20.86;60.26
58690;BME280;44470;53.206;-6.106;2023-08-08T06:47:44;101408.06;;;20.86;60.70
58690;BME280;44470;53.206;-6.106;2023-08-08T06:50:10;101414.28;;;20.86;60.96
58690;BME280;44470;53.206;-6.106;2023-08-08T06:52:35;101422.31;;;20.88;61.01
58690;BME280;44470;53.206;-6.106;2023-08-08T06:55:01;101414.38;;;20.80;60.74
58690;BME280;44470;53.206;-6.106;2023-08-08T06:57:26;101426.75;;;20.87;60.74
58690;BME280;44470;53.206;-6.106;2023-08-08T06:59:52;101407.16;;;20.87;61.22
58690;BME280;44470;53.206;-6.106;2023-08-08T07:02:19;101402.69;;;20.87;60.84
58690;BME280;44470;53.206;-6.106;2023-08-08T07:04:46;101401.81;;;20.87;61.08
58690;BME280;44470;53.206;-6.106;2023-08-08T07:07:11;101403.56;;;20.88;61.33
58690;BME280;44470;53.206;-6.106;2023-08-08T07:09:37;101410.69;;;20.87;60.79
58690;BME280;44470;53.206;-6.106;2023-08-08T07:12:03;101408.94;;;20.86;60.53
58690;BME280;44470;53.206;-6.106;2023-08-08T07:14:28;101409.06;;;20.75;59.78
58690;BME280;44470;53.206;-6.106;2023-08-08T07:16:53;101405.53;;;20.72;59.72
58690;BME280;44470;53.206;-6.106;2023-08-08T07:19:19;101404.59;;;20.76;60.44
58690;BME280;44470;53.206;-6.106;2023-08-08T07:21:44;101403.72;;;20.79;60.77
58690;BME280;44470;53.206;-6.106;2023-08-08T07:24:10;101402.75;;;20.81;60.53
58690;BME280;44470;53.206;-6.106;2023-08-08T07:26:35;101400.09;;;20.83;60.85
58690;BME280;44470;53.206;-6.106;2023-08-08T07:29:00;101399.19;;;20.82;60.54
58690;BME280;44470;53.206;-6.106;2023-08-08T07:31:26;101401.84;;;20.84;61.01
58690;BME280;44470;53.206;-6.106;2023-08-08T07:33:51;101396.50;;;20.84;60.71
58690;BME280;44470;53.206;-6.106;2023-08-08T07:36:16;101392.03;;;20.84;61.03
58690;BME280;44470;53.206;-6.106;2023-08-08T07:38:42;101380.50;;;20.81;60.68
58690;BME280;44470;53.206;-6.106;2023-08-08T07:41:07;101381.34;;;20.83;60.79
58690;BME280;44470;53.206;-6.106;2023-08-08T07:43:33;101382.22;;;20.85;61.02
58690;BME280;44470;53.206;-6.106;2023-08-08T07:45:58;101390.25;;;20.85;60.90
58690;BME280;44470;53.206;-6.106;2023-08-08T07:48:24;101387.66;;;20.79;61.16
58690;BME280;44470;53.206;-6.106;2023-08-08T07:50:49;101403.63;;;20.85;61.00
58690;BME280;44470;53.206;-6.106;2023-08-08T07:53:14;101400.03;;;20.84;60.78
58690;BME280;44470;53.206;-6.106;2023-08-08T07:55:40;101403.63;;;20.85;60.73
58690;BME280;44470;53.206;-6.106;2023-08-08T07:58:05;101402.72;;;20.86;60.99
58690;BME280;44470;53.206;-6.106;2023-08-08T08:00:31;101419.63;;;20.86;60.93
58690;BME280;44470;53.206;-6.106;2023-08-08T08:02:56;101408.97;;;20.85;61.20
58690;BME280;44470;53.206;-6.106;2023-08-08T08:05:21;101415.19;;;20.87;61.22
58690;BME280;44470;53.206;-6.106;2023-08-08T08:07:47;101414.28;;;20.86;61.02
58690;BME280;44470;53.206;-6.106;2023-08-08T08:10:13;101425.88;;;20.87;61.07
58690;BME280;44470;53.206;-6.106;2023-08-08T08:12:39;101428.56;;;20.87;60.98
58690;BME280;44470;53.206;-6.106;2023-08-08T08:15:05;101428.56;;;20.87;60.76
58690;BME280;44470;53.206;-6.106;2023-08-08T08:17:30;101407.16;;;20.87;60.99
58690;BME280;44470;53.206;-6.106;2023-08-08T08:19:56;101397.31;;;20.87;60.90
58690;BME280;44470;53.206;-6.106;2023-08-08T08:22:21;101398.22;;;20.88;61.08
58690;BME280;44470;53.206;-6.106;2023-08-08T08:24:47;101410.69;;;20.87;61.00
58690;BME280;44470;53.206;-6.106;2023-08-08T08:27:12;101402.69;;;20.87;60.95
58690;BME280;44470;53.206;-6.106;2023-08-08T08:29:38;101398.22;;;20.88;61.26
58690;BME280;44470;53.206;-6.106;2023-08-08T08:32:03;101397.31;;;20.87;60.96
58690;BME280;44470;53.206;-6.106;2023-08-08T08:34:29;101410.69;;;20.89;61.29
58690;BME280;44470;53.206;-6.106;2023-08-08T08:36:54;101413.38;;;20.89;61.27
58690;BME280;44470;53.206;-6.106;2023-08-08T08:39:20;101398.22;;;20.88;60.89
58690;BME280;44470;53.206;-6.106;2023-08-08T08:41:46;101398.19;;;20.89;61.40
58690;BME280;44470;53.206;-6.106;2023-08-08T08:44:13;101392.84;;;20.89;61.41
58690;BME280;44470;53.206;-6.106;2023-08-08T08:46:39;101389.28;;;20.89;61.07
58690;BME280;44470;53.206;-6.106;2023-08-08T08:49:05;101396.41;;;20.90;61.29
58690;BME280;44470;53.206;-6.106;2023-08-08T08:51:33;101407.13;;;20.90;61.54
58690;BME280;44470;53.206;-6.106;2023-08-08T08:53:58;101409.78;;;20.90;61.34
58690;BME280;44470;53.206;-6.106;2023-08-08T08:56:23;101404.44;;;20.90;61.56
58690;BME280;44470;53.206;-6.106;2023-08-08T08:58:49;101391.94;;;20.90;61.41
58690;BME280;44470;53.206;-6.106;2023-08-08T09:01:14;101400.84;;;20.91;61.47
58690;BME280;44470;53.206;-6.106;2023-08-08T09:03:40;101407.97;;;20.90;61.19
58690;BME280;44470;53.206;-6.106;2023-08-08T09:06:06;101408.88;;;20.91;61.61
58690;BME280;44470;53.206;-6.106;2023-08-08T09:08:32;101419.59;;;20.91;61.39
58690;BME280;44470;53.206;-6.106;2023-08-08T09:10:57;101414.25;;;20.91;61.35
58690;BME280;44470;53.206;-6.106;2023-08-08T09:13:23;101419.59;;;20.91;61.44
58690;BME280;44470;53.206;-6.106;2023-08-08T09:15:51;101416.00;;;20.92;61.30
58690;BME280;44470;53.206;-6.106;2023-08-08T09:18:17;101416.00;;;20.92;61.48
58690;BME280;44470;53.206;-6.106;2023-08-08T09:20:48;101413.34;;;20.92;61.51
58690;BME280;44470;53.206;-6.106;2023-08-08T09:23:14;101410.66;;;20.92;61.50
58690;BME280;44470;53.206;-6.106;2023-08-08T09:25:40;101407.09;;;20.91;61.52
58690;BME280;44470;53.206;-6.106;2023-08-08T09:28:05;101407.97;;;20.92;61.43
58690;BME280;44470;53.206;-6.106;2023-08-08T09:30:30;101393.69;;;20.91;61.26
58690;BME280;44470;53.206;-6.106;2023-08-08T09:33:02;101399.06;;;20.91;61.19
58690;BME280;44470;53.206;-6.106;2023-08-08T09:35:31;101408.84;;;20.93;61.24
58690;BME280;44470;53.206;-6.106;2023-08-08T09:37:56;101402.63;;;20.92;61.58
58690;BME280;44470;53.206;-6.106;2023-08-08T09:40:22;101402.59;;;20.94;61.57
58690;BME280;44470;53.206;-6.106;2023-08-08T09:42:47;101399.03;;;20.93;61.74
58690;BME280;44470;53.206;-6.106;2023-08-08T09:45:15;101411.53;;;20.93;61.65
58690;BME280;44470;53.206;-6.106;2023-08-08T09:47:41;101412.44;;;20.93;61.68
58690;BME280;44470;53.206;-6.106;2023-08-08T09:50:06;101409.75;;;20.93;61.77
58690;BME280;44470;53.206;-6.106;2023-08-08T09:52:35;101411.53;;;20.93;61.42
58690;BME280;44470;53.206;-6.106;2023-08-08T09:55:03;101412.44;;;20.93;61.49
58690;BME280;44470;53.206;-6.106;2023-08-08T09:57:29;101420.44;;;20.93;61.62
58690;BME280;44470;53.206;-6.106;2023-08-08T09:59:55;101423.13;;;20.93;61.39
58690;BME280;44470;53.206;-6.106;2023-08-08T10:02:21;101433.84;;;20.93;61.66
58690;BME280;44470;53.206;-6.106;2023-08-08T10:04:46;101426.66;;;20.94;61.59
58690;BME280;44470;53.206;-6.106;2023-08-08T10:07:12;101435.59;;;20.93;61.76
58690;BME280;44470;53.206;-6.106;2023-08-08T10:09:37;101420.44;;;20.93;61.69
58690;BME280;44470;53.206;-6.106;2023-08-08T10:12:04;101423.13;;;20.93;61.73
58690;BME280;44470;53.206;-6.106;2023-08-08T10:14:34;101431.16;;;20.93;61.58
58690;BME280;44470;53.206;-6.106;2023-08-08T10:17:02;101433.84;;;20.93;61.81
58690;BME280;44470;53.206;-6.106;2023-08-08T10:19:27;101418.66;;;20.94;61.94
58690;BME280;44470;53.206;-6.106;2023-08-08T10:21:59;101410.63;;;20.94;61.83
58690;BME280;44470;53.206;-6.106;2023-08-08T10:24:25;101414.19;;;20.94;61.68
58690;BME280;44470;53.206;-6.106;2023-08-08T10:26:55;101419.53;;;20.94;62.04
58690;BME280;44470;53.206;-6.106;2023-08-08T10:29:23;101427.56;;;20.94;61.81
58690;BME280;44470;53.206;-6.106;2023-08-08T10:31:53;101434.69;;;20.95;61.63
58690;BME280;44470;53.206;-6.106;2023-08-08T10:34:20;101436.50;;;20.95;61.66
58690;BME280;44470;53.206;-6.106;2023-08-08T10:36:51;101438.28;;;20.96;61.96
58690;BME280;44470;53.206;-6.106;2023-08-08T10:39:20;101426.66;;;20.95;61.77
58690;BME280;44470;53.206;-6.106;2023-08-08T10:41:47;101435.59;;;20.94;61.83
58690;BME280;44470;53.206;-6.106;2023-08-08T10:44:13;101437.38;;;20.95;62.08
58690;BME280;44470;53.206;-6.106;2023-08-08T10:46:40;101441.84;;;20.95;61.70
58690;BME280;44470;53.206;-6.106;2023-08-08T10:49:06;101440.94;;;20.94;61.71
58690;BME280;44470;53.206;-6.106;2023-08-08T10:51:41;101437.38;;;20.95;61.87
58690;BME280;44470;53.206;-6.106;2023-08-08T10:54:12;101440.94;;;20.94;62.05
58690;BME280;44470;53.206;-6.106;2023-08-08T10:56:38;101427.56;;;20.94;61.88
58690;BME280;44470;53.206;-6.106;2023-08-08T10:59:22;101432.94;;;20.94;61.76
58690;BME280;44470;53.206;-6.106;2023-08-08T11:01:49;101440.94;;;20.94;62.11
58690;BME280;44470;53.206;-6.106;2023-08-08T11:04:16;101440.06;;;20.95;62.11
58690;BME280;44470;53.206;-6.106;2023-08-08T11:06:42;101440.94;;;20.94;62.07
58690;BME280;44470;53.206;-6.106;2023-08-08T11:09:08;101419.53;;;20.94;62.02
58690;BME280;44470;53.206;-6.106;2023-08-08T11:11:38;101412.44;;;20.93;61.96
58690;BME280;44470;53.206;-6.106;2023-08-08T11:14:14;101411.53;;;20.93;62.07
58690;BME280;44470;53.206;-6.106;2023-08-08T11:16:40;101415.09;;;20.93;62.26
58690;BME280;44470;53.206;-6.106;2023-08-08T11:19:06;101417.78;;;20.93;62.05
58690;BME280;44470;53.206;-6.106;2023-08-08T11:21:36;101415.97;;;20.94;62.04
58690;BME280;44470;53.206;-6.106;2023-08-08T11:24:02;101417.78;;;20.93;61.88
58690;BME280;44470;53.206;-6.106;2023-08-08T11:26:27;101419.53;;;20.94;61.82
58690;BME280;44470;53.206;-6.106;2023-08-08T11:28:56;101418.66;;;20.94;61.91
58690;BME280;44470;53.206;-6.106;2023-08-08T11:31:22;101427.56;;;20.94;62.12
58690;BME280;44470;53.206;-6.106;2023-08-08T11:33:48;101429.38;;;20.92;62.05
58690;BME280;44470;53.206;-6.106;2023-08-08T11:36:14;101433.84;;;20.93;61.87
58690;BME280;44470;53.206;-6.106;2023-08-08T11:38:39;101431.16;;;20.93;62.08
58690;BME280;44470;53.206;-6.106;2023-08-08T11:41:06;101446.31;;;20.94;62.25
58690;BME280;44470;53.206;-6.106;2023-08-08T11:43:31;101448.09;;;20.94;62.03
58690;BME280;44470;53.206;-6.106;2023-08-08T11:45:59;101455.25;;;20.93;61.87
58690;BME280;44470;53.206;-6.106;2023-08-08T11:48:25;101448.09;;;20.94;62.05
58690;BME280;44470;53.206;-6.106;2023-08-08T11:50:52;101457.00;;;20.93;62.32
58690;BME280;44470;53.206;-6.106;2023-08-08T11:53:18;101455.25;;;20.93;62.19
58690;BME280;44470;53.206;-6.106;2023-08-08T11:55:44;101457.91;;;20.93;62.02
58690;BME280;44470;53.206;-6.106;2023-08-08T11:58:12;101457.91;;;20.91;61.85
58690;BME280;44470;53.206;-6.106;2023-08-08T12:00:37;101448.97;;;20.93;62.28
58690;BME280;44470;53.206;-6.106;2023-08-08T12:03:03;101448.13;;;20.92;61.90
58690;BME280;44470;53.206;-6.106;2023-08-08T12:05:29;101440.97;;;20.93;62.16
58690;BME280;44470;53.206;-6.106;2023-08-08T12:07:55;101432.97;;;20.91;62.01
58690;BME280;44470;53.206;-6.106;2023-08-08T12:10:21;101421.34;;;20.92;62.24
58690;BME280;44470;53.206;-6.106;2023-08-08T12:12:52;101418.69;;;20.92;61.96
58690;BME280;44470;53.206;-6.106;2023-08-08T12:15:19;101416.00;;;20.92;62.22
58690;BME280;44470;53.206;-6.106;2023-08-08T12:17:44;101423.13;;;20.93;62.05
58690;BME280;44470;53.206;-6.106;2023-08-08T12:20:11;101415.09;;;20.93;62.31
58690;BME280;44470;53.206;-6.106;2023-08-08T12:22:36;101425.81;;;20.93;61.94
58690;BME280;44470;53.206;-6.106;2023-08-08T12:25:02;101423.13;;;20.93;62.09
58690;BME280;44470;53.206;-6.106;2023-08-08T12:27:28;101416.88;;;20.93;62.27
58690;BME280;44470;53.206;-6.106;2023-08-08T12:29:54;101406.16;;;20.93;62.12
58690;BME280;44470;53.206;-6.106;2023-08-08T12:32:19;101410.66;;;20.92;61.87
58690;BME280;44470;53.206;-6.106;2023-08-08T12:34:45;101407.06;;;20.93;62.09
58690;BME280;44470;53.206;-6.106;2023-08-08T12:37:10;101408.84;;;20.93;62.11
58690;BME280;44470;53.206;-6.106;2023-08-08T12:39:36;101399.94;;;20.92;62.36